createdAt,value
2023-04-21T00:00:09.498Z,99.99
2023-04-21T00:01:09.486Z,99.99
2023-04-21T00:02:09.581Z,99.99
2023-04-21T00:03:09.514Z,99.99
2023-04-21T00:04:09.562Z,99.99
2023-04-21T00:05:09.672Z,99.99
2023-04-21T00:06:09.462Z,99.99
2023-04-21T00:07:09.400Z,99.99
2023-04-21T00:08:09.405Z,99.99
2023-04-21T00:09:09.369Z,99.99
2023-04-21T00:10:09.360Z,99.99
2023-04-21T00:11:09.354Z,99.99
2023-04-21T00:12:09.339Z,99.99
2023-04-21T00:13:09.330Z,99.99
2023-04-21T00:14:09.307Z,99.99
2023-04-21T00:15:09.290Z,99.99
2023-04-21T00:16:09.329Z,99.99
2023-04-21T00:17:09.272Z,99.99
2023-04-21T00:18:09.304Z,99.99
2023-04-21T00:19:09.243Z,99.99
2023-04-21T00:20:09.222Z,99.99
2023-04-21T00:21:09.204Z,99.99
2023-04-21T00:22:09.194Z,99.99
2023-04-21T00:23:09.178Z,99.99
2023-04-21T00:24:09.284Z,99.99
2023-04-21T00:25:09.171Z,99.99
2023-04-21T00:26:09.144Z,99.99
2023-04-21T00:27:09.123Z,99.99
2023-04-21T00:28:09.113Z,99.99
2023-04-21T00:29:09.104Z,99.99
2023-04-21T00:30:09.092Z,99.99
2023-04-21T00:31:09.136Z,99.99
2023-04-21T00:32:09.056Z,99.99
2023-04-21T00:33:09.043Z,99.99
2023-04-21T00:34:09.034Z,99.99
2023-04-21T00:35:09.318Z,99.99
2023-04-21T00:36:08.997Z,99.99
2023-04-21T00:37:08.986Z,99.99
2023-04-21T00:38:08.975Z,99.99
2023-04-21T00:39:08.957Z,99.99
2023-04-21T00:40:09.296Z,99.99
2023-04-21T00:41:08.933Z,99.99
2023-04-21T00:42:08.952Z,99.99
2023-04-21T00:43:08.917Z,99.99
2023-04-21T00:44:08.913Z,99.99
2023-04-21T00:45:08.880Z,99.99
2023-04-21T00:46:08.882Z,99.99
2023-04-21T00:47:08.923Z,99.99
2023-04-21T00:48:08.994Z,99.99
2023-04-21T00:49:08.834Z,99.99
2023-04-21T00:50:08.830Z,99.99
2023-04-21T00:51:08.797Z,99.99
2023-04-21T00:52:08.800Z,99.99
2023-04-21T00:53:08.777Z,99.99
2023-04-21T00:54:08.772Z,99.99
2023-04-21T00:55:08.758Z,99.99
2023-04-21T00:56:08.772Z,99.99
2023-04-21T00:57:08.723Z,99.99
2023-04-21T00:58:08.707Z,99.99
2023-04-21T00:59:08.692Z,99.99
2023-04-21T01:00:08.676Z,99.99
2023-04-21T01:01:08.695Z,99.99
2023-04-21T01:02:08.687Z,99.99
2023-04-21T01:03:08.780Z,99.99
2023-04-21T01:04:08.918Z,99.99
2023-04-21T01:05:08.610Z,99.99
2023-04-21T01:06:08.601Z,99.99
2023-04-21T01:07:08.785Z,99.99
2023-04-21T01:08:08.583Z,99.99
2023-04-21T01:09:08.567Z,99.99
2023-04-21T01:10:08.556Z,99.99
2023-04-21T01:11:08.535Z,99.99
2023-04-21T01:12:08.546Z,99.99
2023-04-21T01:13:08.513Z,99.99
2023-04-21T01:14:08.498Z,99.99
2023-04-21T01:15:08.482Z,99.99
2023-04-21T01:16:08.495Z,99.99
2023-04-21T01:17:08.456Z,99.99
2023-04-21T01:18:08.500Z,99.99
2023-04-21T01:19:08.430Z,99.99
2023-04-21T01:20:08.419Z,99.99
2023-04-21T01:21:08.392Z,99.99
2023-04-21T01:22:08.395Z,99.99
2023-04-21T01:23:08.372Z,99.99
2023-04-21T01:24:08.361Z,99.99
2023-04-21T01:25:08.352Z,99.99
2023-04-21T01:26:08.334Z,99.99
2023-04-21T01:27:08.527Z,99.99
2023-04-21T01:28:08.373Z,99.99
2023-04-21T01:29:08.491Z,99.99
2023-04-21T01:30:08.597Z,99.99
2023-04-21T01:31:08.262Z,99.99
2023-04-21T01:32:08.305Z,99.99
2023-04-21T01:33:08.259Z,99.99
2023-04-21T01:34:08.221Z,99.99
2023-04-21T01:35:08.256Z,99.99
2023-04-21T01:36:08.344Z,99.99
2023-04-21T01:37:08.179Z,99.99
2023-04-21T01:38:08.167Z,99.99
2023-04-21T01:39:08.152Z,99.99
2023-04-21T01:40:08.143Z,99.99
2023-04-21T01:41:08.131Z,99.99
2023-04-21T01:42:08.117Z,99.99
2023-04-21T01:43:08.099Z,99.99
2023-04-21T01:44:08.461Z,99.99
2023-04-21T01:45:08.474Z,99.99
2023-04-21T01:46:08.227Z,99.99
2023-04-21T01:47:08.193Z,99.99
2023-04-21T01:48:08.218Z,99.99
2023-04-21T01:49:08.223Z,99.99
2023-04-21T01:50:08.177Z,99.99
2023-04-21T01:51:08.143Z,99.99
2023-04-21T01:52:07.981Z,99.99
2023-04-21T01:53:07.972Z,99.99
2023-04-21T01:54:08.000Z,99.99
2023-04-21T01:55:08.094Z,99.99
2023-04-21T01:56:08.124Z,99.99
2023-04-21T01:57:07.998Z,99.99
2023-04-21T01:58:07.897Z,99.99
2023-04-21T01:59:07.882Z,99.99
2023-04-21T02:00:07.904Z,99.99
2023-04-21T02:01:08.283Z,99.99
2023-04-21T02:02:08.268Z,99.99
2023-04-21T02:03:07.983Z,99.99
2023-04-21T02:05:07.814Z,99.99
2023-04-21T02:06:07.800Z,99.99
2023-04-21T02:07:08.139Z,99.99
2023-04-21T02:08:08.065Z,99.99
2023-04-21T02:09:07.752Z,99.99
2023-04-21T02:10:07.750Z,99.99
2023-04-21T02:11:07.722Z,99.99
2023-04-21T02:12:07.711Z,99.99
2023-04-21T02:13:07.704Z,99.99
2023-04-21T02:14:07.684Z,99.99
2023-04-21T02:15:07.686Z,99.99
2023-04-21T02:16:13.357Z,99.99
2023-04-21T02:17:08.674Z,99.99
2023-04-21T02:18:07.682Z,99.99
2023-04-21T02:19:07.618Z,99.99
2023-04-21T02:20:07.612Z,99.99
2023-04-21T02:21:07.598Z,99.99
2023-04-21T02:22:07.575Z,99.99
2023-04-21T02:23:07.563Z,99.99
2023-04-21T02:24:07.547Z,99.99
2023-04-21T02:25:07.533Z,99.99
2023-04-21T02:26:07.515Z,99.99
2023-04-21T02:27:07.506Z,99.99
2023-04-21T02:28:07.493Z,99.99
2023-04-21T02:29:07.482Z,99.99
2023-04-21T02:30:07.467Z,99.99
2023-04-21T02:31:07.516Z,99.99
2023-04-21T02:33:07.542Z,99.99
2023-04-21T02:34:07.418Z,99.99
2023-04-21T02:35:07.398Z,99.99
2023-04-21T02:36:07.419Z,99.99
2023-04-21T02:37:07.392Z,99.99
2023-04-21T02:38:07.362Z,99.99
2023-04-21T02:39:07.335Z,99.99
2023-04-21T02:40:07.365Z,99.99
2023-04-21T02:41:07.327Z,99.99
2023-04-21T02:42:07.306Z,99.99
2023-04-21T02:43:07.292Z,99.99
2023-04-21T02:44:07.266Z,99.99
2023-04-21T02:45:07.256Z,99.99
2023-04-21T02:46:07.364Z,99.99
2023-04-21T02:47:07.233Z,99.99
2023-04-21T02:48:07.320Z,99.99
2023-04-21T02:49:07.205Z,99.99
2023-04-21T02:50:07.202Z,99.99
2023-04-21T02:51:07.209Z,99.99
2023-04-21T02:52:07.157Z,99.99
2023-04-21T02:53:07.247Z,99.99
2023-04-21T02:54:07.139Z,99.99
2023-04-21T02:55:07.248Z,99.99
2023-04-21T02:56:07.114Z,99.99
2023-04-21T02:57:07.094Z,99.99
2023-04-21T02:58:07.142Z,99.99
2023-04-21T02:59:07.075Z,99.99
2023-04-21T03:00:07.065Z,99.99
2023-04-21T03:01:07.113Z,99.99
2023-04-21T03:02:07.192Z,99.99
2023-04-21T03:03:07.137Z,99.99
2023-04-21T03:04:07.175Z,99.99
2023-04-21T03:05:07.289Z,99.99
2023-04-21T03:06:06.976Z,99.99
2023-04-21T03:07:07.010Z,99.99
2023-04-21T03:08:06.954Z,99.99
2023-04-21T03:09:06.932Z,99.99
2023-04-21T03:10:07.219Z,99.99
2023-04-21T03:11:06.908Z,99.99
2023-04-21T03:12:06.901Z,99.99
2023-04-21T03:13:06.883Z,99.99
2023-04-21T03:14:06.859Z,99.99
2023-04-21T03:15:06.853Z,99.99
2023-04-21T03:16:06.994Z,99.99
2023-04-21T03:17:06.828Z,99.99
2023-04-21T03:18:06.927Z,99.99
2023-04-21T03:19:06.805Z,99.99
2023-04-21T03:20:06.811Z,99.99
2023-04-21T03:21:06.775Z,99.99
2023-04-21T03:22:06.772Z,99.99
2023-04-21T03:23:06.742Z,99.99
2023-04-21T03:24:06.726Z,99.99
2023-04-21T03:25:06.719Z,99.99
2023-04-21T03:26:06.704Z,99.99
2023-04-21T03:27:06.682Z,99.99
2023-04-21T03:28:06.708Z,99.99
2023-04-21T03:29:06.669Z,99.99
2023-04-21T03:30:06.668Z,99.99
2023-04-21T03:31:06.642Z,99.99
2023-04-21T03:32:06.682Z,99.99
2023-04-21T03:33:06.640Z,99.99
2023-04-21T03:34:06.593Z,99.99
2023-04-21T03:35:06.582Z,99.99
2023-04-21T03:36:06.625Z,99.99
2023-04-21T03:37:06.558Z,99.99
2023-04-21T03:38:06.547Z,99.99
2023-04-21T03:39:20.440Z,99.99
2023-04-21T03:40:07.538Z,99.99
2023-04-21T03:41:06.499Z,99.99
2023-04-21T03:42:06.482Z,99.99
2023-04-21T03:43:06.478Z,99.99
2023-04-21T03:44:06.455Z,99.99
2023-04-21T03:45:06.453Z,99.99
2023-04-21T03:46:06.450Z,99.99
2023-04-21T03:47:06.414Z,99.99
2023-04-21T03:48:06.446Z,99.99
2023-04-21T03:49:06.393Z,99.99
2023-04-21T03:50:06.385Z,99.99
2023-04-21T03:51:06.374Z,99.99
2023-04-21T03:52:06.371Z,99.99
2023-04-21T03:53:06.334Z,99.99
2023-04-21T03:54:06.320Z,99.99
2023-04-21T03:55:06.314Z,99.99
2023-04-21T03:56:06.310Z,99.99
2023-04-21T03:57:06.280Z,99.99
2023-04-21T03:58:06.275Z,99.99
2023-04-21T03:59:06.258Z,99.99
2023-04-21T04:00:06.242Z,99.99
2023-04-21T04:01:06.239Z,99.99
2023-04-21T04:02:06.280Z,99.99
2023-04-21T04:03:06.375Z,99.99
2023-04-21T04:04:06.497Z,99.99
2023-04-21T04:05:06.229Z,99.99
2023-04-21T04:06:06.157Z,99.99
2023-04-21T04:07:06.155Z,99.99
2023-04-21T04:08:06.153Z,99.99
2023-04-21T04:09:06.118Z,99.99
2023-04-21T04:10:06.101Z,99.99
2023-04-21T04:11:06.092Z,99.99
2023-04-21T04:12:06.080Z,99.99
2023-04-21T04:13:06.074Z,99.99
2023-04-21T04:14:06.054Z,99.99
2023-04-21T04:15:06.038Z,99.99
2023-04-21T04:16:06.067Z,99.99
2023-04-21T04:17:06.013Z,99.99
2023-04-21T04:18:06.031Z,99.99
2023-04-21T04:19:06.013Z,99.99
2023-04-21T04:20:05.966Z,99.99
2023-04-21T04:21:05.953Z,99.99
2023-04-21T04:22:05.939Z,99.99
2023-04-21T04:23:05.924Z,99.99
2023-04-21T04:24:05.940Z,99.99
2023-04-21T04:25:05.907Z,99.99
2023-04-21T04:26:05.915Z,99.99
2023-04-21T04:27:05.875Z,99.99
2023-04-21T04:28:06.367Z,99.99
2023-04-21T04:29:05.842Z,99.99
2023-04-21T04:30:05.849Z,99.99
2023-04-21T04:31:05.831Z,99.99
2023-04-21T04:32:05.845Z,99.99
2023-04-21T04:33:05.869Z,99.99
2023-04-21T04:34:05.772Z,99.99
2023-04-21T04:35:05.767Z,99.99
2023-04-21T04:36:05.782Z,99.99
2023-04-21T04:37:05.744Z,99.99
2023-04-21T04:38:05.726Z,99.99
2023-04-21T04:39:06.816Z,99.99
2023-04-21T04:40:05.729Z,99.99
2023-04-21T04:41:05.681Z,99.99
2023-04-21T04:42:05.677Z,99.99
2023-04-21T04:43:05.654Z,99.99
2023-04-21T04:44:05.648Z,99.99
2023-04-21T04:45:05.627Z,99.99
2023-04-21T04:46:05.616Z,99.99
2023-04-21T04:47:05.613Z,99.99
2023-04-21T04:48:05.592Z,99.99
2023-04-21T04:49:05.580Z,99.99
2023-04-21T04:50:05.565Z,99.99
2023-04-21T04:51:05.550Z,99.99
2023-04-21T04:52:05.543Z,99.99
2023-04-21T04:53:05.528Z,99.99
2023-04-21T04:54:05.509Z,99.99
2023-04-21T04:55:05.497Z,99.99
2023-04-21T04:56:05.504Z,99.99
2023-04-21T04:57:05.493Z,99.99
2023-04-21T04:58:05.451Z,99.99
2023-04-21T04:59:05.440Z,99.99
2023-04-21T05:00:05.542Z,99.99
2023-04-21T05:01:05.412Z,99.99
2023-04-21T05:02:05.464Z,99.99
2023-04-21T05:03:05.513Z,99.99
2023-04-21T05:04:05.585Z,99.99
2023-04-21T05:05:05.574Z,99.99
2023-04-21T05:06:05.353Z,99.99
2023-04-21T05:07:05.343Z,99.99
2023-04-21T05:08:05.329Z,99.99
2023-04-21T05:09:05.304Z,99.99
2023-04-21T05:10:05.301Z,99.99
2023-04-21T05:11:05.305Z,99.99
2023-04-21T05:12:05.320Z,99.99
2023-04-21T05:13:05.290Z,99.99
2023-04-21T05:14:05.273Z,99.99
2023-04-21T05:15:05.252Z,99.99
2023-04-21T05:16:05.258Z,99.99
2023-04-21T05:17:05.289Z,99.99
2023-04-21T05:18:05.273Z,99.99
2023-04-21T05:19:05.190Z,99.99
2023-04-21T05:20:05.171Z,99.99
2023-04-21T05:21:05.175Z,99.99
2023-04-21T05:22:05.166Z,99.99
2023-04-21T05:23:05.123Z,99.99
2023-04-21T05:24:05.113Z,99.99
2023-04-21T05:25:05.097Z,99.99
2023-04-21T05:26:05.270Z,99.99
2023-04-21T05:27:05.104Z,99.99
2023-04-21T05:28:05.120Z,99.99
2023-04-21T05:29:05.062Z,99.99
2023-04-21T05:30:05.061Z,99.99
2023-04-21T05:31:05.054Z,99.99
2023-04-21T05:32:05.092Z,99.99
2023-04-21T05:33:05.094Z,99.99
2023-04-21T05:34:05.053Z,99.99
2023-04-21T05:35:05.005Z,99.99
2023-04-21T05:36:04.984Z,99.99
2023-04-21T05:37:04.939Z,99.99
2023-04-21T05:38:04.922Z,99.99
2023-04-21T05:39:04.919Z,99.99
2023-04-21T05:40:04.928Z,99.99
2023-04-21T05:41:04.922Z,99.99
2023-04-21T05:42:04.875Z,99.99
2023-04-21T05:43:04.870Z,99.99
2023-04-21T05:44:04.882Z,99.99
2023-04-21T05:45:04.856Z,99.99
2023-04-21T05:46:04.876Z,99.99
2023-04-21T05:47:04.850Z,99.99
2023-04-21T05:48:04.873Z,99.99
2023-04-21T05:49:04.808Z,99.99
2023-04-21T05:50:04.772Z,99.99
2023-04-21T05:51:04.764Z,99.99
2023-04-21T05:52:04.761Z,99.99
2023-04-21T05:53:04.735Z,99.99
2023-04-21T05:54:04.713Z,99.99
2023-04-21T05:55:04.756Z,99.99
2023-04-21T05:56:04.702Z,99.99
2023-04-21T05:57:04.737Z,99.99
2023-04-21T05:58:04.669Z,99.99
2023-04-21T05:59:04.698Z,99.99
2023-04-21T06:00:04.677Z,99.99
2023-04-21T06:01:04.626Z,99.99
2023-04-21T06:02:04.711Z,99.99
2023-04-21T06:03:04.746Z,99.99
2023-04-21T06:04:04.820Z,99.99
2023-04-21T06:05:04.745Z,99.99
2023-04-21T06:06:04.586Z,99.99
2023-04-21T06:07:04.551Z,99.99
2023-04-21T06:08:04.573Z,99.99
2023-04-21T06:09:04.533Z,99.99
2023-04-21T06:10:04.538Z,99.99
2023-04-21T06:11:04.505Z,99.99
2023-04-21T06:12:04.478Z,99.99
2023-04-21T06:13:04.477Z,99.99
2023-04-21T06:14:04.446Z,99.99
2023-04-21T06:15:04.452Z,99.99
2023-04-21T06:16:04.526Z,99.99
2023-04-21T06:17:04.395Z,99.99
2023-04-21T06:18:04.437Z,99.99
2023-04-21T06:19:04.405Z,99.99
2023-04-21T06:20:04.379Z,99.99
2023-04-21T06:21:04.375Z,99.99
2023-04-21T06:22:04.345Z,99.99
2023-04-21T06:23:04.340Z,99.99
2023-04-21T06:24:04.330Z,99.99
2023-04-21T06:25:04.313Z,99.99
2023-04-21T06:26:04.278Z,99.99
2023-04-21T06:27:04.291Z,99.99
2023-04-21T06:28:04.261Z,99.99
2023-04-21T06:29:04.305Z,99.99
2023-04-21T06:30:04.240Z,99.99
2023-04-21T06:31:06.224Z,99.99
2023-04-21T06:32:04.349Z,99.99
2023-04-21T06:33:04.268Z,99.99
2023-04-21T06:34:04.171Z,99.99
2023-04-21T06:35:04.159Z,99.99
2023-04-21T06:36:04.154Z,99.99
2023-04-21T06:37:04.131Z,99.99
2023-04-21T06:38:04.126Z,99.99
2023-04-21T06:39:04.304Z,99.99
2023-04-21T06:40:04.111Z,99.99
2023-04-21T06:41:04.127Z,99.99
2023-04-21T06:42:04.095Z,99.99
2023-04-21T06:43:04.083Z,99.99
2023-04-21T06:44:04.075Z,99.99
2023-04-21T06:45:04.028Z,99.99
2023-04-21T06:46:04.041Z,99.99
2023-04-21T06:47:04.038Z,99.99
2023-04-21T06:48:04.080Z,99.99
2023-04-21T06:49:03.967Z,99.99
2023-04-21T06:50:03.959Z,99.99
2023-04-21T06:51:03.953Z,99.99
2023-04-21T06:52:03.937Z,99.99
2023-04-21T06:53:03.932Z,99.99
2023-04-21T06:54:03.912Z,99.99
2023-04-21T06:55:03.918Z,99.99
2023-04-21T06:56:03.884Z,99.99
2023-04-21T06:57:03.865Z,99.99
2023-04-21T06:58:03.857Z,99.99
2023-04-21T06:59:03.846Z,99.99
2023-04-21T07:00:03.827Z,99.99
2023-04-21T07:01:03.917Z,99.99
2023-04-21T07:02:03.876Z,99.99
2023-04-21T07:03:03.941Z,99.99
2023-04-21T07:04:03.846Z,99.99
2023-04-21T07:05:03.749Z,99.99
2023-04-21T07:06:03.740Z,99.99
2023-04-21T07:07:03.725Z,99.99
2023-04-21T07:08:03.717Z,99.99
2023-04-21T07:09:03.695Z,99.99
2023-04-21T07:10:03.682Z,99.99
2023-04-21T07:11:03.663Z,99.99
2023-04-21T07:12:03.664Z,99.99
2023-04-21T07:13:03.638Z,99.99
2023-04-21T07:14:03.625Z,99.99
2023-04-21T07:15:03.613Z,99.99
2023-04-21T07:16:03.603Z,99.99
2023-04-21T07:17:03.756Z,99.99
2023-04-21T07:18:03.658Z,99.99
2023-04-21T07:19:03.572Z,99.99
2023-04-21T07:20:03.577Z,99.99
2023-04-21T07:21:03.533Z,99.99
2023-04-21T07:22:03.526Z,99.99
2023-04-21T07:23:03.525Z,99.99
2023-04-21T07:24:03.581Z,99.99
2023-04-21T07:25:03.782Z,99.99
2023-04-21T07:26:03.469Z,99.99
2023-04-21T07:27:03.516Z,99.99
2023-04-21T07:28:03.487Z,99.99
2023-04-21T07:29:03.659Z,99.99
2023-04-21T07:30:03.495Z,99.99
2023-04-21T07:31:03.849Z,99.99
2023-04-21T07:32:03.461Z,99.99
2023-04-21T07:33:03.679Z,99.99
2023-04-21T07:34:03.492Z,99.99
2023-04-21T07:35:03.480Z,99.99
2023-04-21T07:36:03.456Z,99.99
2023-04-21T07:37:03.366Z,99.99
2023-04-21T07:38:03.346Z,99.99
2023-04-21T07:39:03.434Z,99.99
2023-04-21T07:40:03.471Z,99.99
2023-04-21T07:41:03.377Z,99.99
2023-04-21T07:42:03.350Z,99.99
2023-04-21T07:43:03.538Z,99.99
2023-04-21T07:44:03.340Z,99.99
2023-04-21T07:45:03.252Z,99.99
2023-04-21T07:46:03.409Z,99.99
2023-04-21T07:47:03.260Z,99.99
2023-04-21T07:48:03.410Z,99.99
2023-04-21T07:49:04.012Z,99.99
2023-04-21T07:50:03.166Z,99.99
2023-04-21T07:51:03.123Z,99.99
2023-04-21T07:52:03.138Z,99.99
2023-04-21T07:53:03.105Z,99.99
2023-04-21T07:54:03.084Z,99.99
2023-04-21T07:55:03.073Z,99.99
2023-04-21T07:56:03.056Z,99.99
2023-04-21T07:57:03.047Z,99.99
2023-04-21T07:58:03.030Z,99.99
2023-04-21T07:59:03.018Z,99.99
2023-04-21T08:00:03.014Z,99.99
2023-04-21T08:01:02.984Z,99.99
2023-04-21T08:02:03.006Z,99.99
2023-04-21T08:03:03.030Z,99.99
2023-04-21T08:04:03.075Z,99.99
2023-04-21T08:05:02.999Z,99.99
2023-04-21T08:06:03.377Z,99.99
2023-04-21T08:07:03.109Z,99.99
2023-04-21T08:08:02.923Z,99.99
2023-04-21T08:09:02.920Z,99.62
2023-04-21T08:10:02.867Z,99.56
2023-04-21T08:11:02.885Z,99.99
2023-04-21T08:12:02.838Z,99.21
2023-04-21T08:13:02.827Z,99.93
2023-04-21T08:14:02.804Z,98.03
2023-04-21T08:15:02.799Z,98.70
2023-04-21T08:16:02.797Z,96.75
2023-04-21T08:17:02.805Z,97.48
2023-04-21T08:18:02.801Z,96.31
2023-04-21T08:19:02.783Z,96.22
2023-04-21T08:20:02.735Z,95.76
2023-04-21T08:21:02.740Z,96.69
2023-04-21T08:22:02.706Z,96.01
2023-04-21T08:23:02.739Z,97.24
2023-04-21T08:24:02.743Z,95.92
2023-04-21T08:25:02.692Z,95.63
2023-04-21T08:26:02.645Z,90.78
2023-04-21T08:27:02.643Z,89.11
2023-04-21T08:28:02.628Z,89.23
2023-04-21T08:29:04.571Z,92.41
2023-04-21T08:30:02.588Z,90.32
2023-04-21T08:31:02.693Z,88.31
2023-04-21T08:32:02.618Z,86.63
2023-04-21T08:33:02.695Z,91.11
2023-04-21T08:34:17.450Z,89.99
2023-04-21T08:35:03.814Z,87.75
2023-04-21T08:36:07.433Z,86.68
2023-04-21T08:37:03.554Z,86.80
2023-04-21T08:38:02.477Z,84.74
2023-04-21T08:39:02.521Z,87.88
2023-04-21T08:40:02.487Z,86.35
2023-04-21T08:41:02.451Z,90.14
2023-04-21T08:42:02.533Z,86.13
2023-04-21T08:43:02.422Z,88.32
2023-04-21T08:44:02.406Z,88.83
2023-04-21T08:45:02.394Z,88.77
2023-04-21T08:46:02.653Z,88.53
2023-04-21T08:47:02.361Z,81.73
2023-04-21T08:48:02.382Z,83.06
2023-04-21T08:49:02.343Z,83.95
2023-04-21T08:50:02.348Z,87.96
2023-04-21T08:51:02.305Z,80.22
2023-04-21T08:52:02.440Z,84.29
2023-04-21T08:53:02.285Z,79.06
2023-04-21T08:54:02.573Z,82.68
2023-04-21T08:55:02.284Z,75.26
2023-04-21T08:56:10.643Z,80.31
2023-04-21T08:57:13.979Z,86.47
2023-04-21T08:58:03.246Z,83.45
2023-04-21T08:59:02.259Z,85.38
2023-04-21T09:00:02.188Z,87.26
2023-04-21T09:01:02.217Z,75.86
2023-04-21T09:02:02.259Z,79.11
2023-04-21T09:03:02.753Z,74.51
2023-04-21T09:04:02.224Z,78.53
2023-04-21T09:05:02.534Z,75.28
2023-04-21T09:06:02.629Z,78.28
2023-04-21T09:07:02.102Z,71.57
2023-04-21T09:08:02.086Z,77.47
2023-04-21T09:09:02.076Z,74.33
2023-04-21T09:10:02.060Z,66.61
2023-04-21T09:11:02.044Z,71.37
2023-04-21T09:12:02.054Z,69.21
2023-04-21T09:13:02.013Z,67.69
2023-04-21T09:14:01.997Z,73.75
2023-04-21T09:15:01.987Z,70.49
2023-04-21T09:16:01.983Z,71.77
2023-04-21T09:17:02.001Z,68.64
2023-04-21T09:18:02.054Z,71.84
2023-04-21T09:19:02.048Z,66.46
2023-04-21T09:20:01.934Z,61.52
2023-04-21T09:21:01.914Z,67.97
2023-04-21T09:22:01.908Z,67.10
2023-04-21T09:23:01.891Z,63.24
2023-04-21T09:24:01.871Z,66.43
2023-04-21T09:25:01.866Z,62.38
2023-04-21T09:26:01.842Z,67.81
2023-04-21T09:27:01.835Z,64.78
2023-04-21T09:28:01.921Z,66.30
2023-04-21T09:29:01.806Z,62.26
2023-04-21T09:30:01.795Z,67.24
2023-04-21T09:31:01.861Z,68.68
2023-04-21T09:32:01.920Z,62.70
2023-04-21T09:33:03.262Z,66.66
2023-04-21T09:34:01.854Z,67.77
2023-04-21T09:35:01.733Z,66.73
2023-04-21T09:36:01.726Z,70.53
2023-04-21T09:37:01.710Z,73.32
2023-04-21T09:38:01.697Z,69.02
2023-04-21T09:40:05.012Z,62.05
2023-04-21T09:41:01.652Z,62.72
2023-04-21T09:42:01.632Z,61.29
2023-04-21T09:43:02.075Z,58.40
2023-04-21T09:44:02.058Z,62.13
2023-04-21T09:45:29.014Z,67.87
2023-04-21T09:46:02.715Z,66.53
2023-04-21T09:47:01.589Z,63.45
2023-04-21T09:48:01.619Z,65.50
2023-04-21T09:49:01.540Z,63.42
2023-04-21T09:50:01.546Z,64.90
2023-04-21T09:51:25.438Z,60.25
2023-04-21T09:53:01.497Z,60.72
2023-04-21T09:54:01.476Z,58.75
2023-04-21T09:55:01.462Z,65.17
2023-04-21T09:56:01.457Z,62.69
2023-04-21T09:57:01.477Z,59.20
2023-04-21T09:58:01.431Z,64.16
2023-04-21T09:59:01.417Z,65.23
2023-04-21T10:00:01.431Z,55.88
2023-04-21T10:01:01.409Z,61.82
2023-04-21T10:02:01.658Z,60.28
2023-04-21T10:03:01.462Z,62.89
2023-04-21T10:04:01.563Z,57.94
2023-04-21T10:05:01.547Z,59.79
2023-04-21T10:06:01.379Z,54.58
2023-04-21T10:07:01.313Z,56.76
2023-04-21T10:08:01.302Z,57.30
2023-04-21T10:09:01.278Z,54.43
2023-04-21T10:10:01.312Z,57.66
2023-04-21T10:11:01.276Z,57.06
2023-04-21T10:12:01.266Z,60.84
2023-04-21T10:13:01.256Z,55.45
2023-04-21T10:14:01.259Z,57.96
2023-04-21T10:15:01.215Z,61.80
2023-04-21T10:16:01.303Z,59.06
2023-04-21T10:17:01.179Z,60.03
2023-04-21T10:18:01.245Z,57.30
2023-04-21T10:19:01.153Z,54.07
2023-04-21T10:20:01.145Z,55.85
2023-04-21T10:21:01.131Z,57.75
2023-04-21T10:22:01.115Z,60.31
2023-04-21T10:23:01.110Z,59.61
2023-04-21T10:24:01.107Z,58.48
2023-04-21T10:25:01.111Z,60.08
2023-04-21T10:26:01.075Z,58.48
2023-04-21T10:27:01.069Z,58.66
2023-04-21T10:28:01.077Z,58.76
2023-04-21T10:29:01.056Z,60.93
2023-04-21T10:30:01.028Z,60.89
2023-04-21T10:31:01.007Z,57.53
2023-04-21T10:32:01.091Z,61.01
2023-04-21T10:33:01.030Z,54.80
2023-04-21T10:34:00.965Z,62.15
2023-04-21T10:35:00.954Z,57.72
2023-04-21T10:36:00.966Z,56.07
2023-04-21T10:37:00.987Z,57.63
2023-04-21T10:38:00.918Z,56.93
2023-04-21T10:39:00.919Z,59.74
2023-04-21T10:40:00.911Z,60.51
2023-04-21T10:41:00.885Z,56.23
2023-04-21T10:42:00.872Z,59.96
2023-04-21T10:43:00.863Z,58.33
2023-04-21T10:44:00.847Z,63.21
2023-04-21T10:45:00.834Z,58.95
2023-04-21T10:46:00.815Z,52.42
2023-04-21T10:47:00.921Z,55.82
2023-04-21T10:48:00.855Z,55.44
2023-04-21T10:49:00.787Z,54.39
2023-04-21T10:50:01.131Z,58.35
2023-04-21T10:51:00.765Z,59.96
2023-04-21T10:52:00.789Z,62.83
2023-04-21T10:53:00.733Z,62.66
2023-04-21T10:54:00.790Z,62.73
2023-04-21T10:55:00.712Z,61.70
2023-04-21T10:56:00.695Z,58.26
2023-04-21T10:57:00.680Z,59.13
2023-04-21T10:58:00.668Z,60.21
2023-04-21T10:59:00.661Z,61.58
2023-04-21T11:00:00.653Z,57.20
2023-04-21T11:01:00.681Z,61.87
2023-04-21T11:02:00.724Z,58.06
2023-04-21T11:03:00.867Z,56.28
2023-04-21T11:04:00.735Z,58.89
2023-04-21T11:05:00.946Z,62.43
2023-04-21T11:06:00.691Z,61.76
2023-04-21T11:07:00.568Z,60.42
2023-04-21T11:08:00.559Z,64.14
2023-04-21T11:09:00.530Z,61.55
2023-04-21T11:10:00.514Z,59.25
2023-04-21T11:11:00.498Z,58.11
2023-04-21T11:12:00.487Z,59.59
2023-04-21T11:13:00.497Z,63.78
2023-04-21T11:14:00.506Z,61.34
2023-04-21T11:15:00.494Z,59.94
2023-04-21T11:16:00.535Z,61.54
2023-04-21T11:17:00.628Z,54.70
2023-04-21T11:18:00.472Z,60.81
2023-04-21T11:19:00.425Z,60.94
2023-04-21T11:20:00.494Z,58.00
2023-04-21T11:21:00.386Z,58.28
2023-04-21T11:22:00.382Z,60.38
2023-04-21T11:23:00.390Z,61.35
2023-04-21T11:24:00.360Z,59.95
2023-04-21T11:25:00.329Z,59.95
2023-04-21T11:26:00.318Z,57.20
2023-04-21T11:27:00.307Z,58.30
2023-04-21T11:28:00.349Z,58.70
2023-04-21T11:29:00.288Z,56.96
2023-04-21T11:30:00.279Z,58.06
2023-04-21T11:31:00.279Z,58.56
2023-04-21T11:32:00.247Z,59.03
2023-04-21T11:33:00.251Z,61.04
2023-04-21T11:34:00.214Z,60.14
2023-04-21T11:35:00.202Z,56.90
2023-04-21T11:36:00.210Z,55.94
2023-04-21T11:37:00.183Z,58.45
2023-04-21T11:38:00.161Z,59.12
2023-04-21T11:39:00.153Z,56.46
2023-04-21T11:40:00.479Z,54.44
2023-04-21T11:41:00.154Z,56.74
2023-04-21T11:42:00.147Z,53.14
2023-04-21T11:43:00.147Z,52.27
2023-04-21T11:44:00.123Z,52.00
2023-04-21T11:45:00.127Z,55.32
2023-04-21T11:46:00.120Z,54.85
2023-04-21T11:47:00.060Z,56.85
2023-04-21T11:48:00.076Z,56.62
2023-04-21T11:49:00.043Z,54.79
2023-04-21T11:50:00.033Z,56.16
2023-04-21T11:51:00.708Z,54.14
2023-04-21T11:52:00.024Z,53.17
2023-04-21T11:52:59.999Z,54.77
2023-04-21T11:53:59.983Z,55.97
2023-04-21T11:54:59.968Z,54.49
2023-04-21T11:55:59.957Z,52.47
2023-04-21T11:57:02.410Z,57.17
2023-04-21T11:57:59.922Z,56.94
2023-04-21T11:58:59.906Z,56.38
2023-04-21T11:59:59.919Z,50.77
2023-04-21T12:00:59.877Z,53.96
2023-04-21T12:01:59.869Z,51.77
2023-04-21T12:02:59.970Z,55.16
2023-04-21T12:04:00.002Z,53.77
2023-04-21T12:04:59.924Z,54.66
2023-04-21T12:06:00.188Z,53.12
2023-04-21T12:06:59.802Z,58.21
2023-04-21T12:07:59.827Z,55.09
2023-04-21T12:08:59.784Z,55.11
2023-04-21T12:09:59.783Z,56.01
2023-04-21T12:10:59.749Z,54.71
2023-04-21T12:11:59.754Z,57.18
2023-04-21T12:12:59.729Z,55.64
2023-04-21T12:13:59.716Z,54.11
2023-04-21T12:14:59.701Z,53.22
2023-04-21T12:15:59.748Z,53.89
2023-04-21T12:16:59.704Z,54.32
2023-04-21T12:17:59.730Z,54.22
2023-04-21T12:18:59.648Z,56.48
2023-04-21T12:19:59.639Z,55.58
2023-04-21T12:20:59.625Z,53.84
2023-04-21T12:21:59.606Z,55.40
2023-04-21T12:22:59.607Z,56.70
2023-04-21T12:23:59.606Z,55.89
2023-04-21T12:24:59.573Z,54.64
2023-04-21T12:25:59.576Z,51.82
2023-04-21T12:26:59.554Z,56.01
2023-04-21T12:27:59.544Z,54.64
2023-04-21T12:28:59.518Z,55.64
2023-04-21T12:29:59.516Z,53.61
2023-04-21T12:30:59.500Z,53.79
2023-04-21T12:31:59.735Z,55.46
2023-04-21T12:32:59.733Z,52.44
2023-04-21T12:33:59.528Z,53.14
2023-04-21T12:34:59.453Z,52.34
2023-04-21T12:35:59.490Z,53.96
2023-04-21T12:36:59.425Z,53.29
2023-04-21T12:37:59.426Z,51.62
2023-04-21T12:38:59.403Z,53.52
2023-04-21T12:39:59.414Z,53.72
2023-04-21T12:40:59.374Z,52.69
2023-04-21T12:41:59.373Z,53.54
2023-04-21T12:42:59.346Z,52.82
2023-04-21T12:43:59.333Z,54.10
2023-04-21T12:44:59.308Z,54.92
2023-04-21T12:45:59.400Z,54.92
2023-04-21T12:46:59.330Z,54.99
2023-04-21T12:47:59.352Z,54.69
2023-04-21T12:48:59.267Z,55.47
2023-04-21T12:49:59.266Z,55.84
2023-04-21T12:50:59.241Z,54.04
2023-04-21T12:51:59.343Z,55.29
2023-04-21T12:52:59.215Z,55.69
2023-04-21T12:53:59.206Z,55.42
2023-04-21T12:54:59.644Z,55.22
2023-04-21T12:56:04.589Z,56.12